createdAt,value
2018-08-28T00:00:36.991Z,14.40
2018-08-28T00:03:06.312Z,14.40
2018-08-28T00:05:35.334Z,14.40
2018-08-28T00:08:04.503Z,14.40
2018-08-28T00:10:33.543Z,14.40
2018-08-28T00:13:02.661Z,14.50
2018-08-28T00:15:31.802Z,14.50
2018-08-28T00:18:00.850Z,14.50
2018-08-28T00:20:29.896Z,14.50
2018-08-28T00:22:58.936Z,14.50
2018-08-28T00:25:27.975Z,14.60
2018-08-28T00:27:57.019Z,14.60
2018-08-28T00:30:26.064Z,14.60
2018-08-28T00:32:55.104Z,14.70
2018-08-28T00:35:24.174Z,14.70
2018-08-28T00:37:53.203Z,14.70
2018-08-28T00:40:22.262Z,14.70
2018-08-28T00:42:51.398Z,14.80
2018-08-28T00:45:20.494Z,14.70
2018-08-28T00:47:49.601Z,14.80
2018-08-28T00:50:18.696Z,14.90
2018-08-28T00:52:48.547Z,14.90
2018-08-28T00:55:17.717Z,14.90
2018-08-28T00:57:46.995Z,15.00
2018-08-28T01:00:16.154Z,15.00
2018-08-28T01:02:45.197Z,15.00
2018-08-28T01:05:14.246Z,14.90
2018-08-28T01:07:43.305Z,14.90
2018-08-28T01:10:12.326Z,14.90
2018-08-28T01:12:41.389Z,14.80
2018-08-28T01:15:10.410Z,14.80
2018-08-28T01:17:39.460Z,14.80
2018-08-28T01:20:08.454Z,14.80
2018-08-28T01:22:37.504Z,14.70
2018-08-28T01:25:07.126Z,14.70
2018-08-28T01:27:36.157Z,14.70
2018-08-28T01:30:05.210Z,14.70
2018-08-28T01:32:34.342Z,14.60
2018-08-28T01:35:03.374Z,14.60
2018-08-28T01:37:33.545Z,14.60
2018-08-28T01:40:02.698Z,14.70
2018-08-28T01:42:31.749Z,14.70
2018-08-28T01:45:00.810Z,14.70
2018-08-28T01:47:29.873Z,14.70
2018-08-28T01:49:58.976Z,14.70
2018-08-28T01:52:28.113Z,14.60
2018-08-28T01:54:57.169Z,14.70
2018-08-28T01:57:26.326Z,14.60
2018-08-28T01:59:55.330Z,14.60
2018-08-28T02:02:24.351Z,14.60
2018-08-28T02:04:53.375Z,14.50
2018-08-28T02:07:22.437Z,14.50
2018-08-28T02:09:51.445Z,14.50
2018-08-28T02:12:20.467Z,14.50
2018-08-28T02:14:49.488Z,14.40
2018-08-28T02:17:18.519Z,14.40
2018-08-28T02:19:47.532Z,14.40
2018-08-28T02:22:16.604Z,14.40
2018-08-28T02:24:45.601Z,14.30
2018-08-28T02:27:14.642Z,14.30
2018-08-28T02:29:43.743Z,14.30
2018-08-28T02:32:12.875Z,14.30
2018-08-28T02:34:42.713Z,14.30
2018-08-28T02:37:12.355Z,14.30
2018-08-28T02:39:42.560Z,14.30
2018-08-28T02:42:11.659Z,14.20
2018-08-28T02:44:40.692Z,14.30
2018-08-28T02:47:09.814Z,14.40
2018-08-28T02:49:38.880Z,14.40
2018-08-28T02:52:07.993Z,14.50
2018-08-28T02:54:37.115Z,14.60
2018-08-28T02:57:06.163Z,14.70
2018-08-28T02:59:35.183Z,14.80
2018-08-28T03:02:04.297Z,14.80
2018-08-28T03:04:33.370Z,14.90
2018-08-28T03:07:02.407Z,15.00
2018-08-28T03:09:31.440Z,15.00
2018-08-28T03:12:00.469Z,15.10
2018-08-28T03:14:29.541Z,15.10
2018-08-28T03:16:58.612Z,15.20
2018-08-28T03:19:27.714Z,15.20
2018-08-28T03:21:56.796Z,15.20
2018-08-28T03:24:25.926Z,15.20
2018-08-28T03:26:55.016Z,15.20
2018-08-28T03:29:24.050Z,15.30
2018-08-28T03:31:53.158Z,15.30
2018-08-28T03:34:22.246Z,15.30
2018-08-28T03:36:51.343Z,15.20
2018-08-28T03:39:20.362Z,15.30
2018-08-28T03:41:49.436Z,15.30
2018-08-28T03:44:18.501Z,15.20
2018-08-28T03:46:47.579Z,15.30
2018-08-28T03:49:16.623Z,15.30
2018-08-28T03:51:45.725Z,15.20
2018-08-28T03:54:14.977Z,15.20
2018-08-28T03:56:44.023Z,15.20
2018-08-28T03:59:13.060Z,15.10
2018-08-28T04:01:42.111Z,15.00
2018-08-28T04:04:11.180Z,15.00
2018-08-28T04:06:40.236Z,15.10
2018-08-28T04:09:09.874Z,15.10
2018-08-28T04:11:38.921Z,15.30
2018-08-28T04:14:07.982Z,15.30
2018-08-28T04:16:37.034Z,15.30
2018-08-28T04:19:06.403Z,15.30
2018-08-28T04:21:35.481Z,15.30
2018-08-28T04:24:04.671Z,15.20
2018-08-28T04:26:33.864Z,15.10
2018-08-28T04:29:02.937Z,15.00
2018-08-28T04:31:31.972Z,14.90
2018-08-28T04:34:01.584Z,14.90
2018-08-28T04:36:30.755Z,14.90
2018-08-28T04:38:59.872Z,14.80
2018-08-28T04:41:29.075Z,14.80
2018-08-28T04:43:58.132Z,14.70
2018-08-28T04:46:27.267Z,14.70
2018-08-28T04:48:56.496Z,14.70
2018-08-28T04:51:25.551Z,14.60
2018-08-28T04:53:54.626Z,14.70
2018-08-28T04:56:23.890Z,14.70
2018-08-28T04:58:52.910Z,14.70
2018-08-28T05:01:21.987Z,14.80
2018-08-28T05:03:51.009Z,14.80
2018-08-28T05:06:20.260Z,14.90
2018-08-28T05:08:49.366Z,14.90
2018-08-28T05:11:18.460Z,14.90
2018-08-28T05:13:47.459Z,15.00
2018-08-28T05:16:16.591Z,15.10
2018-08-28T05:18:45.679Z,15.10
2018-08-28T05:21:14.767Z,15.20
2018-08-28T05:23:43.794Z,15.20
2018-08-28T05:26:12.908Z,15.30
2018-08-28T05:28:41.997Z,15.40
2018-08-28T05:31:11.462Z,15.40
2018-08-28T05:33:40.531Z,15.50
2018-08-28T05:36:09.653Z,15.60
2018-08-28T05:38:38.783Z,15.70
2018-08-28T05:41:09.607Z,15.70
2018-08-28T05:43:38.853Z,15.80
2018-08-28T05:46:08.159Z,15.80
2018-08-28T05:48:37.292Z,15.80
2018-08-28T05:51:06.413Z,15.80
2018-08-28T05:53:36.043Z,15.90
2018-08-28T05:56:05.177Z,15.90
2018-08-28T05:58:34.194Z,15.90
2018-08-28T06:01:03.319Z,15.90
2018-08-28T06:03:32.726Z,15.90
2018-08-28T06:06:02.732Z,15.90
2018-08-28T06:08:31.776Z,16.00
2018-08-28T06:11:00.921Z,16.00
2018-08-28T06:13:29.993Z,16.20
2018-08-28T06:15:59.086Z,16.20
2018-08-28T06:18:28.135Z,16.20
2018-08-28T06:20:57.191Z,16.30
2018-08-28T06:23:26.243Z,16.30
2018-08-28T06:25:55.257Z,16.40
2018-08-28T06:28:24.323Z,16.30
2018-08-28T06:30:53.384Z,16.40
2018-08-28T06:33:22.476Z,16.40
2018-08-28T06:35:51.586Z,16.40
2018-08-28T06:38:20.641Z,16.40
2018-08-28T06:40:49.755Z,16.50
2018-08-28T06:43:18.834Z,16.50
2018-08-28T06:45:48.078Z,16.60
2018-08-28T06:48:17.196Z,16.60
2018-08-28T06:50:46.582Z,16.60
2018-08-28T06:53:15.835Z,16.70
2018-08-28T06:55:45.115Z,16.50
2018-08-28T06:58:14.216Z,16.50
2018-08-28T07:00:44.500Z,16.60
2018-08-28T07:03:13.635Z,16.60
2018-08-28T07:05:43.404Z,16.50
2018-08-28T07:08:14.019Z,16.60
2018-08-28T07:10:43.094Z,16.60
2018-08-28T07:13:12.178Z,16.60
2018-08-28T07:15:41.207Z,16.70
2018-08-28T07:18:10.570Z,16.80
2018-08-28T07:20:39.653Z,17.00
2018-08-28T07:23:08.786Z,16.90
2018-08-28T07:25:37.995Z,16.90
2018-08-28T07:28:06.963Z,17.00
2018-08-28T07:30:36.353Z,17.10
2018-08-28T07:33:05.431Z,17.20
2018-08-28T07:35:34.577Z,17.20
2018-08-28T07:38:03.855Z,17.30
2018-08-28T07:40:32.922Z,17.40
2018-08-28T07:43:01.987Z,17.50
2018-08-28T07:45:31.016Z,17.60
2018-08-28T07:48:00.078Z,17.70
2018-08-28T07:50:29.215Z,17.70
2018-08-28T07:52:58.336Z,17.70
2018-08-28T07:55:27.523Z,17.80
2018-08-28T07:57:57.074Z,17.80
2018-08-28T08:00:26.376Z,17.70
2018-08-28T08:02:55.540Z,17.60
2018-08-28T08:05:24.622Z,17.60
2018-08-28T08:07:53.700Z,17.60
2018-08-28T08:10:22.780Z,17.70
2018-08-28T08:12:51.810Z,17.70
2018-08-28T08:15:20.868Z,17.80
2018-08-28T08:17:50.090Z,17.80
2018-08-28T08:20:19.239Z,17.80
2018-08-28T08:22:48.412Z,17.70
2018-08-28T08:25:17.455Z,17.70
2018-08-28T08:27:46.661Z,17.80
2018-08-28T08:30:15.747Z,17.80
2018-08-28T08:32:44.791Z,17.90
2018-08-28T08:35:13.945Z,17.90
2018-08-28T08:37:42.980Z,17.90
2018-08-28T08:40:12.135Z,18.00
2018-08-28T08:42:41.439Z,18.10
2018-08-28T08:45:10.563Z,18.30
2018-08-28T08:47:39.839Z,18.50
2018-08-28T08:50:09.330Z,18.70
2018-08-28T08:52:38.399Z,18.90
2018-08-28T08:55:08.099Z,19.10
2018-08-28T08:57:37.305Z,19.00
2018-08-28T09:00:06.599Z,19.00
2018-08-28T09:02:35.726Z,19.00
2018-08-28T09:05:05.709Z,19.20
2018-08-28T09:07:34.839Z,19.40
2018-08-28T09:10:03.887Z,19.50
2018-08-28T09:12:33.001Z,19.80
2018-08-28T09:15:02.048Z,19.90
2018-08-28T09:17:31.099Z,19.80
2018-08-28T09:20:00.119Z,20.00
2018-08-28T09:22:29.270Z,20.10
2018-08-28T09:24:58.393Z,20.20
2018-08-28T09:27:27.550Z,20.40
2018-08-28T09:29:56.594Z,20.30
2018-08-28T09:32:25.787Z,20.30
2018-08-28T09:34:54.851Z,20.40
2018-08-28T09:37:23.911Z,20.60
2018-08-28T09:39:58.853Z,20.50
2018-08-28T09:42:28.085Z,20.50
2018-08-28T09:44:57.191Z,20.50
2018-08-28T09:47:26.264Z,20.60
2018-08-28T09:49:55.419Z,20.70
2018-08-28T09:52:24.441Z,20.70
2018-08-28T09:54:53.512Z,20.60
2018-08-28T09:57:22.564Z,20.50
2018-08-28T09:59:51.864Z,20.40
2018-08-28T10:02:20.950Z,20.40
2018-08-28T10:04:50.299Z,20.40
2018-08-28T10:07:19.518Z,20.40
2018-08-28T10:09:50.633Z,20.50
2018-08-28T10:12:21.566Z,20.40
2018-08-28T10:14:50.802Z,20.30
2018-08-28T10:17:20.464Z,20.30
2018-08-28T10:19:49.605Z,20.30
2018-08-28T10:22:18.804Z,20.20
2018-08-28T10:24:48.313Z,20.10
2018-08-28T10:27:17.517Z,20.20
2018-08-28T10:29:46.704Z,20.30
2018-08-28T10:32:15.803Z,20.60
2018-08-28T10:34:44.914Z,20.90
2018-08-28T10:37:14.051Z,21.00
2018-08-28T10:39:43.105Z,21.00
2018-08-28T10:42:12.264Z,20.80
2018-08-28T10:44:46.874Z,20.70
2018-08-28T10:47:16.023Z,20.70
2018-08-28T10:49:45.934Z,20.90
2018-08-28T10:52:15.006Z,20.80
2018-08-28T10:54:44.304Z,20.70
2018-08-28T10:57:14.390Z,20.90
2018-08-28T10:59:45.862Z,21.00
2018-08-28T11:02:24.271Z,21.20
2018-08-28T11:04:55.882Z,21.40
2018-08-28T11:07:25.557Z,21.40
2018-08-28T11:09:55.061Z,21.30
2018-08-28T11:12:24.607Z,21.10
2018-08-28T11:14:53.684Z,21.00
2018-08-28T11:17:22.908Z,21.10
2018-08-28T11:19:53.141Z,21.00
2018-08-28T11:22:22.218Z,21.10
2018-08-28T11:24:51.371Z,21.20
2018-08-28T11:27:20.698Z,21.30
2018-08-28T11:29:49.751Z,21.50
2018-08-28T11:32:19.927Z,21.80
2018-08-28T11:34:49.074Z,22.00
2018-08-28T11:37:19.956Z,22.10
2018-08-28T11:39:49.187Z,22.10
2018-08-28T11:44:54.646Z,22.20
2018-08-28T11:47:23.801Z,22.00
2018-08-28T11:49:52.840Z,22.00
2018-08-28T11:52:21.916Z,22.00
2018-08-28T11:54:51.025Z,22.00
2018-08-28T11:57:20.095Z,22.10
2018-08-28T11:59:49.259Z,22.20
2018-08-28T12:02:18.410Z,22.20
2018-08-28T12:04:47.505Z,22.40
2018-08-28T12:07:16.651Z,22.30
2018-08-28T12:09:45.665Z,22.00
2018-08-28T12:12:15.165Z,22.00
2018-08-28T12:14:44.302Z,21.80
2018-08-28T12:17:13.456Z,21.60
2018-08-28T12:19:42.883Z,21.50
2018-08-28T12:22:12.103Z,21.30
2018-08-28T12:24:41.666Z,21.40
2018-08-28T12:27:10.827Z,21.40
2018-08-28T12:29:42.781Z,21.40
2018-08-28T12:32:12.316Z,21.40
2018-08-28T12:34:41.637Z,21.40
2018-08-28T12:37:11.641Z,21.40
2018-08-28T12:39:40.821Z,21.20
2018-08-28T12:42:10.222Z,21.30
2018-08-28T12:44:39.388Z,21.20
2018-08-28T12:47:08.556Z,21.20
2018-08-28T12:49:37.620Z,21.20
2018-08-28T12:52:06.746Z,21.10
2018-08-28T12:54:35.974Z,21.20
2018-08-28T12:57:05.122Z,21.30
2018-08-28T12:59:34.203Z,21.40
2018-08-28T13:02:03.383Z,21.50
2018-08-28T13:04:32.423Z,21.60
2018-08-28T13:07:01.610Z,21.50
2018-08-28T13:09:30.687Z,21.20
2018-08-28T13:12:00.089Z,21.20
2018-08-28T13:14:29.224Z,21.20
2018-08-28T13:16:58.556Z,21.30
2018-08-28T13:19:27.668Z,21.30
2018-08-28T13:21:56.861Z,21.30
2018-08-28T13:24:25.946Z,21.50
2018-08-28T13:26:55.064Z,21.60
2018-08-28T13:29:24.253Z,21.60
2018-08-28T13:31:54.837Z,21.60
2018-08-28T13:34:24.131Z,21.80
2018-08-28T13:36:53.591Z,21.80
2018-08-28T13:39:22.893Z,21.90
2018-08-28T13:41:51.943Z,21.80
2018-08-28T13:44:21.084Z,21.80
2018-08-28T13:46:50.317Z,21.90
2018-08-28T13:49:19.358Z,21.80
2018-08-28T13:51:48.408Z,21.70
2018-08-28T13:54:17.705Z,21.80
2018-08-28T13:56:47.763Z,21.80
2018-08-28T13:59:16.852Z,21.90
2018-08-28T14:01:45.889Z,22.00
2018-08-28T14:04:14.983Z,22.00
2018-08-28T14:06:44.490Z,21.90
2018-08-28T14:09:13.657Z,21.60
2018-08-28T14:11:43.475Z,21.60
2018-08-28T14:14:12.530Z,21.70
2018-08-28T14:16:41.608Z,21.80
2018-08-28T14:19:10.701Z,21.80
2018-08-28T14:21:39.749Z,21.70
2018-08-28T14:24:08.844Z,21.80
2018-08-28T14:26:38.072Z,21.70
2018-08-28T14:29:07.362Z,21.70
2018-08-28T14:31:36.442Z,21.60
2018-08-28T14:34:05.574Z,21.50
2018-08-28T14:36:34.694Z,21.50
2018-08-28T14:39:04.914Z,21.50
2018-08-28T14:41:33.999Z,21.50
2018-08-28T14:44:03.202Z,21.50
2018-08-28T14:46:32.494Z,21.50
2018-08-28T14:49:01.750Z,21.60
2018-08-28T14:51:30.992Z,21.60
2018-08-28T14:54:00.094Z,21.60
2018-08-28T14:56:29.536Z,21.60
2018-08-28T14:58:58.858Z,21.60
2018-08-28T15:01:28.042Z,21.60
2018-08-28T15:04:02.440Z,21.60
2018-08-28T15:06:32.019Z,21.70
2018-08-28T15:09:02.339Z,21.70
2018-08-28T15:11:31.512Z,21.60
2018-08-28T15:14:01.046Z,21.70
2018-08-28T15:16:30.189Z,21.80
2018-08-28T15:18:59.187Z,21.70
2018-08-28T15:21:28.268Z,21.70
2018-08-28T15:23:57.482Z,21.80
2018-08-28T15:26:26.542Z,21.80
2018-08-28T15:28:55.642Z,21.80
2018-08-28T15:31:24.776Z,21.90
2018-08-28T15:33:53.830Z,21.90
2018-08-28T15:36:22.908Z,21.90
2018-08-28T15:38:52.206Z,21.90
2018-08-28T15:41:21.323Z,21.90
2018-08-28T15:43:50.386Z,22.00
2018-08-28T15:46:19.538Z,22.00
2018-08-28T15:48:48.632Z,21.80
2018-08-28T15:51:17.760Z,21.80
2018-08-28T15:53:47.003Z,21.80
2018-08-28T15:56:16.951Z,21.70
2018-08-28T15:58:46.027Z,21.60
2018-08-28T16:01:15.266Z,21.60
2018-08-28T16:03:44.512Z,21.50
2018-08-28T16:06:13.749Z,21.50
2018-08-28T16:08:42.871Z,21.50
2018-08-28T16:11:12.969Z,21.50
2018-08-28T16:13:42.069Z,21.40
2018-08-28T16:16:11.171Z,21.50
2018-08-28T16:18:40.326Z,21.40
2018-08-28T16:21:09.395Z,21.50
2018-08-28T16:23:40.731Z,21.50
2018-08-28T16:26:09.755Z,21.40
2018-08-28T16:28:38.814Z,21.60
2018-08-28T16:31:07.901Z,21.40
2018-08-28T16:33:37.098Z,21.30
2018-08-28T16:36:06.316Z,21.30
2018-08-28T16:38:35.466Z,21.30
2018-08-28T16:41:04.656Z,21.40
2018-08-28T16:46:41.319Z,21.40
2018-08-28T16:49:10.312Z,21.30
2018-08-28T16:51:39.372Z,21.20
2018-08-28T16:54:08.475Z,21.20
2018-08-28T16:56:37.532Z,21.20
2018-08-28T16:59:06.624Z,21.10
2018-08-28T17:01:35.852Z,21.20
2018-08-28T17:04:04.849Z,21.10
2018-08-28T17:06:33.968Z,21.10
2018-08-28T17:09:03.587Z,21.10
2018-08-28T17:11:32.770Z,21.10
2018-08-28T17:14:01.884Z,21.10
2018-08-28T17:16:31.469Z,21.00
2018-08-28T17:19:01.122Z,20.80
2018-08-28T17:21:30.344Z,20.40
2018-08-28T17:23:59.555Z,20.30
2018-08-28T17:26:28.911Z,20.20
2018-08-28T17:28:58.168Z,20.10
2018-08-28T17:31:28.118Z,20.00
2018-08-28T17:33:59.360Z,20.00
2018-08-28T17:36:28.930Z,19.90
2018-08-28T17:38:59.709Z,19.80
2018-08-28T17:41:32.655Z,19.80
2018-08-28T17:44:06.944Z,19.70
2018-08-28T17:46:36.067Z,19.70
2018-08-28T17:49:06.282Z,19.60
2018-08-28T17:51:36.416Z,19.60
2018-08-28T17:54:05.583Z,19.50
2018-08-28T17:56:34.895Z,19.60
2018-08-28T17:59:04.440Z,19.60
2018-08-28T18:01:33.916Z,19.70
2018-08-28T18:04:04.494Z,19.70
2018-08-28T18:06:35.998Z,19.60
2018-08-28T18:09:06.400Z,19.70
2018-08-28T18:11:35.768Z,19.70
2018-08-28T18:14:05.146Z,19.60
2018-08-28T18:16:34.628Z,19.40
2018-08-28T18:19:03.928Z,19.30
2018-08-28T18:21:33.118Z,19.30
2018-08-28T18:24:02.289Z,19.30
2018-08-28T18:26:31.437Z,19.40
2018-08-28T18:29:00.648Z,19.40
2018-08-28T18:31:29.810Z,19.40
2018-08-28T18:33:58.986Z,19.40
2018-08-28T18:36:28.094Z,19.30
2018-08-28T18:38:57.425Z,19.30
2018-08-28T18:41:26.555Z,19.20
2018-08-28T18:43:55.965Z,19.10
2018-08-28T18:46:25.109Z,19.10
2018-08-28T18:48:54.239Z,19.20
2018-08-28T18:51:24.082Z,19.20
2018-08-28T18:53:53.223Z,19.10
2018-08-28T18:56:22.480Z,19.10
2018-08-28T18:58:51.681Z,19.20
2018-08-28T19:01:21.106Z,19.20
2018-08-28T19:03:50.285Z,19.20
2018-08-28T19:06:19.728Z,19.20
2018-08-28T19:08:49.380Z,19.20
2018-08-28T19:11:19.803Z,19.20
2018-08-28T19:13:49.226Z,19.20
2018-08-28T19:16:18.809Z,19.10
2018-08-28T19:18:48.136Z,19.10
2018-08-28T19:21:17.619Z,19.10
2018-08-28T19:23:47.340Z,19.10
2018-08-28T19:26:16.755Z,19.10
2018-08-28T19:28:46.208Z,19.00
2018-08-28T19:31:15.522Z,19.00
2018-08-28T19:33:44.889Z,19.00
2018-08-28T19:36:14.147Z,19.00
2018-08-28T19:38:43.378Z,19.00
2018-08-28T19:41:12.508Z,19.00
2018-08-28T19:43:41.714Z,19.00
2018-08-28T19:46:10.861Z,19.00
2018-08-28T19:48:40.011Z,19.00
2018-08-28T19:51:09.174Z,19.10
2018-08-28T19:53:38.430Z,19.10
2018-08-28T19:56:07.601Z,19.10
2018-08-28T19:58:36.802Z,19.10
2018-08-28T20:01:05.960Z,19.10
2018-08-28T20:03:35.056Z,19.10
2018-08-28T20:06:04.135Z,19.10
2018-08-28T20:08:33.266Z,19.10
2018-08-28T20:11:02.495Z,19.10
2018-08-28T20:13:31.819Z,19.10
2018-08-28T20:16:01.035Z,19.10
2018-08-28T20:18:30.250Z,19.10
2018-08-28T20:20:59.656Z,19.10
2018-08-28T20:23:29.241Z,19.10
2018-08-28T20:25:58.664Z,19.10
2018-08-28T20:28:28.074Z,19.10
2018-08-28T20:30:57.530Z,19.10
2018-08-28T20:33:26.991Z,19.10
2018-08-28T20:35:56.388Z,19.00
2018-08-28T20:38:26.607Z,19.00
2018-08-28T20:40:55.917Z,19.00
2018-08-28T20:43:35.495Z,18.90
2018-08-28T20:46:04.961Z,18.90
2018-08-28T20:48:34.297Z,18.90
2018-08-28T20:51:03.906Z,18.90
2018-08-28T20:53:33.304Z,18.90
2018-08-28T20:56:02.680Z,18.80
2018-08-28T20:58:31.894Z,18.80
2018-08-28T21:01:01.182Z,18.80
2018-08-28T21:03:30.453Z,18.70
2018-08-28T21:06:00.045Z,18.80
2018-08-28T21:08:29.208Z,18.70
2018-08-28T21:10:58.344Z,18.70
2018-08-28T21:13:27.556Z,18.70
2018-08-28T21:15:56.690Z,18.70
2018-08-28T21:18:26.079Z,18.60
2018-08-28T21:20:55.210Z,18.50
2018-08-28T21:23:24.310Z,18.50
2018-08-28T21:25:53.390Z,18.50
2018-08-28T21:28:22.542Z,18.40
2018-08-28T21:30:51.964Z,18.30
2018-08-28T21:33:21.175Z,18.30
2018-08-28T21:35:51.014Z,18.20
2018-08-28T21:38:20.077Z,18.20
2018-08-28T21:40:49.594Z,18.20
2018-08-28T21:43:18.666Z,18.20
2018-08-28T21:45:47.774Z,18.20
2018-08-28T21:48:17.048Z,18.20
2018-08-28T21:50:46.235Z,18.30
2018-08-28T21:53:15.582Z,18.20
2018-08-28T21:55:44.711Z,18.30
2018-08-28T21:58:13.877Z,18.30
2018-08-28T22:00:43.064Z,18.30
2018-08-28T22:03:12.216Z,18.40
2018-08-28T22:05:41.880Z,18.40
2018-08-28T22:08:11.380Z,18.40
2018-08-28T22:10:40.506Z,18.30
2018-08-28T22:13:10.103Z,18.30
2018-08-28T22:15:39.149Z,18.40
2018-08-28T22:18:08.224Z,18.40
2018-08-28T22:20:37.268Z,18.30
2018-08-28T22:23:06.322Z,18.30
2018-08-28T22:25:35.362Z,18.20
2018-08-28T22:28:04.411Z,18.20
2018-08-28T22:30:34.158Z,18.10
2018-08-28T22:33:03.299Z,18.00
2018-08-28T22:35:32.915Z,17.90
2018-08-28T22:38:01.975Z,17.70
2018-08-28T22:40:31.018Z,17.60
2018-08-28T22:43:00.056Z,17.40
2018-08-28T22:45:29.090Z,17.30
2018-08-28T22:47:58.158Z,17.20
2018-08-28T22:50:27.275Z,17.00
2018-08-28T22:52:56.315Z,16.90
2018-08-28T22:55:25.719Z,16.90
2018-08-28T22:57:55.045Z,16.80
2018-08-28T23:00:25.290Z,16.70
2018-08-28T23:02:55.383Z,16.60
2018-08-28T23:05:24.472Z,16.50
2018-08-28T23:07:53.678Z,16.40
2018-08-28T23:10:22.883Z,16.40
2018-08-28T23:12:52.207Z,16.30
2018-08-28T23:15:21.293Z,16.20
2018-08-28T23:17:50.371Z,16.10
2018-08-28T23:20:19.404Z,16.10
2018-08-28T23:22:48.451Z,16.00
2018-08-28T23:25:17.807Z,15.90
2018-08-28T23:27:46.869Z,15.80
2018-08-28T23:30:16.119Z,15.80
2018-08-28T23:32:45.187Z,15.80
2018-08-28T23:35:14.226Z,15.70
2018-08-28T23:37:43.271Z,15.70
2018-08-28T23:40:12.330Z,15.70
2018-08-28T23:42:41.400Z,15.60
2018-08-28T23:45:10.547Z,15.60
2018-08-28T23:47:39.638Z,15.50
2018-08-28T23:50:08.745Z,15.40
2018-08-28T23:52:38.165Z,15.30
2018-08-28T23:55:07.261Z,15.30
2018-08-28T23:57:36.337Z,15.30
